Time;durP1;ratioP1;P1;durP2;ratioP2;P2;SDS_P1;SDS_P2;PMS_P1;PMS_P2;Temp;Humidity;BMP_temperature;BMP_pressure;BME280_temperature;BME280_humidity;BME280_pressure;Samples;Min_cycle;Max_cycle;Signal;HPM_P1;HPM_P2
2022/10/30 00:00:38;;;;;;;17.48;9.85;;;15.40;99.90;;;;;;5067251;28;20056;-72
2022/10/30 00:03:04;;;;;;;20.48;10.20;;;15.40;99.90;;;;;;5090899;28;20044;-72
2022/10/30 00:05:30;;;;;;;25.75;10.68;;;15.50;99.90;;;;;;5053697;28;20103;-72
2022/10/30 00:07:56;;;;;;;24.83;10.43;;;15.40;99.90;;;;;;5077851;28;20085;-72
2022/10/30 00:10:23;;;;;;;24.50;11.10;;;15.40;99.90;;;;;;5057329;28;20053;-72
2022/10/30 00:12:48;;;;;;;21.88;10.52;;;15.40;99.90;;;;;;5070011;28;20052;-72
2022/10/30 00:15:14;;;;;;;24.00;11.20;;;15.40;99.90;;;;;;5092280;28;20072;-72
2022/10/30 00:17:40;;;;;;;22.00;10.35;;;15.40;99.90;;;;;;5087263;28;20047;-72
2022/10/30 00:20:06;;;;;;;21.58;11.13;;;15.40;99.90;;;;;;5086473;28;20076;-72
2022/10/30 00:22:33;;;;;;;18.38;10.73;;;15.40;99.90;;;;;;5071205;28;20045;-72
2022/10/30 00:24:59;;;;;;;24.10;11.63;;;15.30;99.90;;;;;;5084577;28;20050;-72
2022/10/30 00:27:25;;;;;;;16.45;9.65;;;15.30;99.90;;;;;;5062448;28;20090;-72
2022/10/30 00:29:51;;;;;;;19.63;10.88;;;15.20;99.90;;;;;;5075025;28;20494;-72
2022/10/30 00:32:17;;;;;;;23.80;10.35;;;15.20;99.90;;;;;;5078510;28;20052;-72
2022/10/30 00:34:42;;;;;;;18.50;10.35;;;15.10;99.90;;;;;;5073186;28;20517;-72
2022/10/30 00:37:08;;;;;;;20.35;11.35;;;15.10;99.90;;;;;;5067417;28;20048;-72
2022/10/30 00:39:34;;;;;;;18.25;10.75;;;15.10;99.90;;;;;;5075079;28;20096;-72
2022/10/30 00:41:59;;;;;;;21.10;10.63;;;15.10;99.90;;;;;;5029792;28;20055;-72
2022/10/30 00:44:35;;;;;;;20.75;10.70;;;15.10;99.90;;;;;;5049202;28;20041;-72
2022/10/30 00:47:05;;;;;;;20.73;10.65;;;15.10;99.90;;;;;;5064209;28;20049;-72
2022/10/30 00:49:37;;;;;;;19.58;10.60;;;15.10;99.90;;;;;;5064167;28;20053;-72
2022/10/30 00:52:07;;;;;;;20.77;11.23;;;15.00;99.90;;;;;;5064038;28;20121;-72
2022/10/30 00:54:34;;;;;;;22.92;10.43;;;15.10;99.90;;;;;;5063808;28;20511;-72
2022/10/30 00:57:02;;;;;;;20.10;10.68;;;15.10;99.90;;;;;;5064015;28;20585;-72
2022/10/30 00:59:31;;;;;;;20.65;11.10;;;15.20;99.90;;;;;;5064356;28;20121;-72
2022/10/30 01:01:57;;;;;;;20.40;10.95;;;15.10;99.90;;;;;;5053638;28;20074;-72
2022/10/30 01:04:25;;;;;;;18.75;10.68;;;15.00;99.90;;;;;;5064032;28;20099;-72
2022/10/30 01:06:51;;;;;;;21.85;10.77;;;15.00;99.90;;;;;;5064444;28;20057;-72
2022/10/30 01:09:21;;;;;;;24.75;10.68;;;15.00;99.90;;;;;;5063393;28;20520;-72
2022/10/30 01:11:47;;;;;;;21.58;11.00;;;15.00;99.90;;;;;;5049741;28;20113;-72
2022/10/30 01:14:17;;;;;;;18.38;10.30;;;15.00;99.90;;;;;;5048528;28;20085;-72
2022/10/30 01:16:51;;;;;;;21.40;11.05;;;14.90;99.90;;;;;;5064346;28;20053;-72
2022/10/30 01:19:41;;;;;;;21.23;11.45;;;14.90;99.90;;;;;;5064316;28;20045;-72
2022/10/30 01:22:24;;;;;;;21.13;10.77;;;14.90;99.90;;;;;;5064079;28;20056;-72
2022/10/30 01:24:56;;;;;;;17.23;9.77;;;14.90;99.90;;;;;;5049027;28;20107;-72
2022/10/30 01:27:40;;;;;;;20.20;10.32;;;14.90;99.90;;;;;;5047848;28;20053;-72
2022/10/30 01:30:42;;;;;;;20.45;11.23;;;14.90;99.90;;;;;;5039768;28;20045;-72
2022/10/30 01:33:32;;;;;;;15.18;10.75;;;14.90;99.90;;;;;;5065469;28;20083;-72
2022/10/30 01:36:09;;;;;;;18.88;10.77;;;14.90;99.90;;;;;;5066055;28;20123;-72
2022/10/30 01:38:43;;;;;;;16.15;9.45;;;15.00;99.90;;;;;;5051418;28;20091;-72
2022/10/30 01:41:09;;;;;;;17.27;10.20;;;15.00;99.90;;;;;;5067269;28;20041;-72
2022/10/30 01:43:36;;;;;;;20.63;10.05;;;15.00;99.90;;;;;;5051967;28;20049;-72
2022/10/30 01:46:21;;;;;;;17.48;10.48;;;15.00;99.90;;;;;;5049774;28;20497;-72
2022/10/30 01:48:59;;;;;;;18.48;10.50;;;14.90;99.90;;;;;;5051696;28;20041;-72
2022/10/30 01:51:24;;;;;;;17.13;10.32;;;14.90;99.90;;;;;;5036029;28;20071;-72
2022/10/30 01:53:59;;;;;;;17.58;10.02;;;14.90;99.90;;;;;;5050397;28;20489;-72
2022/10/30 01:56:52;;;;;;;22.75;11.00;;;14.90;99.90;;;;;;5067252;28;20049;-72
2022/10/30 01:59:28;;;;;;;18.42;9.68;;;14.90;99.90;;;;;;5051021;28;20049;-72
2022/10/30 02:01:55;;;;;;;18.88;11.25;;;14.80;99.90;;;;;;5047063;28;20065;-72
2022/10/30 02:04:21;;;;;;;22.13;9.82;;;14.80;99.90;;;;;;5067332;28;20102;-72
2022/10/30 02:06:47;;;;;;;19.52;10.55;;;14.80;99.90;;;;;;5056700;28;20093;-72
2022/10/30 02:09:15;;;;;;;17.77;10.88;;;14.80;99.90;;;;;;5051967;28;20064;-72
2022/10/30 02:11:41;;;;;;;18.20;9.85;;;14.70;99.90;;;;;;5051073;28;20413;-72
2022/10/30 02:14:09;;;;;;;19.30;10.80;;;14.70;99.90;;;;;;5052516;28;20048;-72
2022/10/30 02:16:40;;;;;;;20.10;11.05;;;14.70;99.90;;;;;;5036117;28;20512;-72
2022/10/30 02:19:06;;;;;;;16.85;10.38;;;14.70;99.90;;;;;;5051943;28;20044;-72
2022/10/30 02:21:32;;;;;;;20.52;10.57;;;14.70;99.90;;;;;;5049120;28;20092;-72
2022/10/30 02:23:57;;;;;;;19.08;9.88;;;14.70;99.90;;;;;;5067014;28;20080;-72
2022/10/30 02:26:23;;;;;;;17.25;9.68;;;14.80;99.90;;;;;;5051722;28;20103;-72
2022/10/30 02:28:49;;;;;;;21.85;10.98;;;14.70;99.90;;;;;;5051980;28;20048;-72
2022/10/30 02:31:14;;;;;;;22.20;10.43;;;14.70;99.90;;;;;;5048845;28;20049;-72
2022/10/30 02:33:46;;;;;;;19.55;11.05;;;14.70;99.90;;;;;;5066780;28;20092;-72
2022/10/30 02:36:14;;;;;;;24.45;11.52;;;14.80;99.90;;;;;;5066422;28;20041;-72
2022/10/30 02:38:40;;;;;;;20.15;10.02;;;14.70;99.90;;;;;;5049859;28;20055;-72
2022/10/30 02:41:06;;;;;;;19.92;10.25;;;14.70;99.90;;;;;;5054288;28;20056;-72
2022/10/30 02:43:32;;;;;;;21.50;10.25;;;14.70;99.90;;;;;;5047212;28;20037;-72
2022/10/30 02:45:57;;;;;;;20.50;11.15;;;14.70;99.90;;;;;;5048567;28;20060;-72
2022/10/30 02:48:23;;;;;;;17.35;9.93;;;14.70;99.90;;;;;;5048655;28;20405;-72
2022/10/30 02:50:49;;;;;;;21.60;10.65;;;14.70;99.90;;;;;;5048589;28;20064;-72
2022/10/30 02:53:14;;;;;;;17.20;11.15;;;14.60;99.90;;;;;;5046654;28;20071;-72
2022/10/30 02:55:40;;;;;;;18.35;10.43;;;14.60;99.90;;;;;;5049105;28;20477;-72
2022/10/30 02:58:06;;;;;;;18.02;9.82;;;14.60;99.90;;;;;;5060423;28;20500;-72
2022/10/30 03:00:31;;;;;;;16.05;9.40;;;14.50;99.90;;;;;;5066658;28;20048;-72
2022/10/30 03:02:57;;;;;;;22.27;10.38;;;14.50;99.90;;;;;;5064558;28;20075;-72
2022/10/30 03:05:24;;;;;;;22.08;10.15;;;14.50;99.90;;;;;;5065896;28;20060;-72
2022/10/30 03:07:50;;;;;;;17.35;10.43;;;14.50;99.90;;;;;;5048000;28;20057;-72
2022/10/30 03:10:16;;;;;;;20.75;10.52;;;14.50;99.90;;;;;;5058259;28;20052;-72
2022/10/30 03:12:42;;;;;;;17.25;9.50;;;14.40;99.90;;;;;;5048422;28;20064;-72
2022/10/30 03:15:08;;;;;;;20.60;11.00;;;14.30;99.90;;;;;;5054998;28;20061;-72
2022/10/30 03:17:34;;;;;;;18.40;9.48;;;14.20;99.90;;;;;;5045517;28;20057;-72
2022/10/30 03:20:00;;;;;;;23.73;9.75;;;14.00;99.90;;;;;;5058744;28;20387;-72
2022/10/30 03:22:25;;;;;;;19.77;10.52;;;13.80;99.90;;;;;;5046027;28;20105;-72
2022/10/30 03:24:51;;;;;;;25.52;11.20;;;13.70;99.90;;;;;;5048670;28;20049;-72
2022/10/30 03:27:17;;;;;;;23.60;11.30;;;13.70;99.90;;;;;;5065726;28;20080;-72
2022/10/30 03:29:42;;;;;;;20.60;12.43;;;13.70;99.90;;;;;;5048154;28;20049;-72
2022/10/30 03:32:09;;;;;;;26.77;11.10;;;13.80;99.90;;;;;;5046687;28;20113;-72
2022/10/30 03:34:36;;;;;;;21.83;9.77;;;14.00;99.90;;;;;;5053951;28;20041;-72
2022/10/30 03:37:02;;;;;;;19.15;9.57;;;14.00;99.90;;;;;;5048275;28;20056;-73
2022/10/30 03:39:28;;;;;;;21.25;11.10;;;14.00;99.90;;;;;;5079920;28;20062;-72
2022/10/30 03:41:53;;;;;;;18.38;10.73;;;14.10;99.90;;;;;;5078062;28;20056;-72
2022/10/30 03:44:19;;;;;;;18.67;11.05;;;14.10;99.90;;;;;;5091432;28;20037;-72
2022/10/30 03:46:45;;;;;;;20.92;11.77;;;14.10;99.90;;;;;;5060862;28;20408;-72
2022/10/30 03:49:10;;;;;;;21.90;11.80;;;14.20;99.90;;;;;;5047734;28;20095;-72
2022/10/30 03:51:36;;;;;;;16.00;10.63;;;14.10;99.90;;;;;;5073250;28;20054;-73
2022/10/30 03:54:02;;;;;;;16.48;10.18;;;14.10;99.90;;;;;;5094068;28;20132;-73
2022/10/30 03:56:27;;;;;;;19.65;10.70;;;14.00;99.90;;;;;;5060112;28;20053;-73
2022/10/30 03:58:53;;;;;;;16.80;10.30;;;14.00;99.90;;;;;;5104289;28;20043;-72
2022/10/30 04:01:19;;;;;;;18.85;11.15;;;13.90;99.90;;;;;;5063228;28;20044;-72
2022/10/30 04:03:45;;;;;;;18.40;10.98;;;13.90;99.90;;;;;;5070173;28;20049;-72
2022/10/30 04:06:11;;;;;;;20.42;10.95;;;13.90;99.90;;;;;;5079670;28;20132;-72
2022/10/30 04:08:36;;;;;;;17.02;11.00;;;13.90;99.90;;;;;;5091591;28;20043;-72
2022/10/30 04:11:02;;;;;;;19.35;10.07;;;13.90;99.90;;;;;;5083722;28;20108;-72
2022/10/30 04:13:28;;;;;;;17.52;11.05;;;13.90;99.90;;;;;;5096469;28;20068;-72
2022/10/30 04:15:54;;;;;;;19.88;11.20;;;14.00;99.90;;;;;;5084858;28;20048;-72
2022/10/30 04:18:20;;;;;;;26.02;11.25;;;13.90;99.90;;;;;;5086646;28;20032;-72
2022/10/30 04:20:45;;;;;;;19.08;10.02;;;13.90;99.90;;;;;;5086923;28;20046;-73
2022/10/30 04:23:17;;;;;;;30.20;12.90;;;13.90;99.90;;;;;;5051560;28;20051;-72
2022/10/30 04:25:42;;;;;;;20.80;10.57;;;13.90;99.90;;;;;;5087178;28;20151;-72
2022/10/30 04:28:09;;;;;;;19.77;11.07;;;13.80;99.90;;;;;;5071071;28;20046;-72
2022/10/30 04:30:35;;;;;;;21.15;11.02;;;13.80;99.90;;;;;;5078883;28;20059;-72
2022/10/30 04:33:04;;;;;;;19.60;11.60;;;13.80;99.90;;;;;;5069995;28;20052;-73
2022/10/30 04:35:32;;;;;;;20.70;11.13;;;13.60;99.90;;;;;;5089145;28;20043;-72
2022/10/30 04:38:06;;;;;;;21.48;11.07;;;13.50;99.90;;;;;;5074289;28;20040;-72
2022/10/30 04:40:37;;;;;;;26.13;11.95;;;13.50;99.90;;;;;;5045926;28;20053;-73
2022/10/30 04:43:03;;;;;;;24.23;11.80;;;13.50;99.90;;;;;;5071865;28;20236;-73
2022/10/30 04:45:29;;;;;;;20.42;11.35;;;13.50;99.90;;;;;;5062176;28;20078;-73
2022/10/30 04:48:10;;;;;;;20.13;11.25;;;13.50;99.90;;;;;;5063932;28;20432;-73
2022/10/30 04:50:35;;;;;;;16.48;10.88;;;13.40;99.90;;;;;;5069261;28;20049;-72
2022/10/30 04:53:12;;;;;;;20.88;11.40;;;13.40;99.90;;;;;;5054050;28;20068;-73
2022/10/30 04:55:38;;;;;;;22.33;11.32;;;13.40;99.90;;;;;;5067680;28;20425;-73
2022/10/30 04:58:06;;;;;;;24.35;10.98;;;13.30;99.90;;;;;;5046529;28;20052;-73
2022/10/30 05:00:32;;;;;;;21.85;11.13;;;13.30;99.90;;;;;;5049894;28;20045;-73
2022/10/30 05:03:01;;;;;;;18.35;10.82;;;13.30;99.90;;;;;;5053349;28;20128;-73
2022/10/30 05:05:28;;;;;;;19.57;11.97;;;13.30;99.90;;;;;;5049693;28;20504;-73
2022/10/30 05:07:54;;;;;;;20.52;11.82;;;13.30;99.90;;;;;;5064270;28;20279;-73
2022/10/30 05:10:20;;;;;;;23.75;12.02;;;13.40;99.90;;;;;;5059379;28;20067;-73
2022/10/30 05:12:46;;;;;;;21.52;11.50;;;13.30;99.90;;;;;;5068023;28;20045;-72
2022/10/30 05:15:12;;;;;;;17.92;10.63;;;13.40;99.90;;;;;;5054044;28;20064;-72
2022/10/30 05:17:38;;;;;;;20.70;10.52;;;13.30;99.90;;;;;;5057246;28;20044;-73
2022/10/30 05:20:05;;;;;;;20.48;11.65;;;13.20;99.90;;;;;;5049740;28;20045;-73
2022/10/30 05:22:31;;;;;;;19.65;11.73;;;13.20;99.90;;;;;;5070980;28;20045;-72
2022/10/30 05:24:57;;;;;;;24.52;10.63;;;13.10;99.90;;;;;;5071533;28;20131;-73
2022/10/30 05:27:23;;;;;;;24.25;12.05;;;13.00;99.90;;;;;;5053610;28;20108;-72
2022/10/30 05:29:48;;;;;;;22.42;12.02;;;13.00;99.90;;;;;;5048738;28;20054;-73
2022/10/30 05:32:14;;;;;;;21.10;11.32;;;12.90;99.90;;;;;;5051182;28;20044;-73
2022/10/30 05:34:40;;;;;;;21.08;11.00;;;12.90;99.90;;;;;;5052631;28;20400;-73
2022/10/30 05:37:06;;;;;;;20.05;13.13;;;12.90;99.90;;;;;;5054457;28;20507;-73
2022/10/30 05:39:32;;;;;;;20.63;12.95;;;12.90;99.90;;;;;;5057308;28;20048;-72
2022/10/30 05:41:57;;;;;;;22.10;11.50;;;12.90;99.90;;;;;;5086273;28;20064;-72
2022/10/30 05:44:23;;;;;;;25.13;12.23;;;13.00;99.90;;;;;;5087679;28;20093;-73
2022/10/30 05:46:49;;;;;;;21.85;11.60;;;13.10;99.90;;;;;;5071610;28;20036;-73
2022/10/30 05:49:15;;;;;;;22.60;12.18;;;13.10;99.90;;;;;;5077430;28;20098;-73
2022/10/30 05:51:40;;;;;;;24.95;14.25;;;13.20;99.90;;;;;;5057936;28;20100;-73
2022/10/30 05:54:06;;;;;;;19.67;12.10;;;13.20;99.90;;;;;;5085353;28;20068;-72
2022/10/30 05:56:32;;;;;;;22.95;13.00;;;13.20;99.90;;;;;;5079433;28;20040;-73
2022/10/30 05:58:58;;;;;;;22.17;12.85;;;13.30;99.90;;;;;;5062176;28;20052;-73
2022/10/30 06:01:23;;;;;;;24.73;12.73;;;13.40;99.90;;;;;;5076503;28;20056;-73
2022/10/30 06:03:49;;;;;;;24.67;12.88;;;13.40;99.90;;;;;;5060880;28;20041;-73
2022/10/30 06:06:15;;;;;;;21.88;12.88;;;13.40;99.90;;;;;;5054812;28;20044;-72
2022/10/30 06:08:40;;;;;;;25.63;12.95;;;13.50;99.90;;;;;;5058299;28;20041;-73
2022/10/30 06:11:06;;;;;;;22.70;12.65;;;13.40;99.90;;;;;;5055979;28;20044;-73
2022/10/30 06:13:32;;;;;;;20.95;12.35;;;13.40;99.90;;;;;;5070085;28;20045;-73
2022/10/30 06:15:57;;;;;;;22.55;12.85;;;13.50;99.90;;;;;;5055310;28;20106;-73
2022/10/30 06:18:23;;;;;;;23.75;12.55;;;13.50;99.90;;;;;;5079034;28;20054;-73
2022/10/30 06:20:49;;;;;;;22.92;12.85;;;13.50;99.90;;;;;;5072338;28;20036;-72
2022/10/30 06:23:14;;;;;;;22.27;12.60;;;13.60;99.90;;;;;;5086443;28;20040;-73
2022/10/30 06:25:40;;;;;;;28.83;13.30;;;13.60;99.90;;;;;;5102180;28;20048;-72
2022/10/30 06:28:06;;;;;;;24.58;12.88;;;13.60;99.90;;;;;;5068090;28;20099;-73
2022/10/30 06:30:32;;;;;;;22.08;13.27;;;13.50;99.90;;;;;;5063450;28;20108;-72
2022/10/30 06:33:00;;;;;;;24.95;12.82;;;13.60;99.90;;;;;;5079362;28;20091;-72
2022/10/30 06:35:26;;;;;;;30.83;13.43;;;13.60;99.90;;;;;;5075988;28;20037;-73
2022/10/30 06:37:53;;;;;;;19.10;12.73;;;13.60;99.90;;;;;;5057780;28;20049;-73
2022/10/30 06:40:23;;;;;;;23.20;12.93;;;13.70;99.90;;;;;;5053637;28;20485;-72
2022/10/30 06:42:51;;;;;;;23.70;13.23;;;13.70;99.90;;;;;;5067190;28;20077;-73
2022/10/30 06:45:19;;;;;;;25.10;13.75;;;13.60;99.90;;;;;;5061104;28;20055;-72
2022/10/30 06:47:44;;;;;;;20.23;13.05;;;13.60;99.90;;;;;;5089298;28;20415;-73
2022/10/30 06:50:13;;;;;;;25.15;13.38;;;13.50;99.90;;;;;;5107264;28;20075;-73
2022/10/30 06:52:39;;;;;;;20.27;12.80;;;13.50;99.90;;;;;;5107838;28;20072;-73
2022/10/30 06:55:05;;;;;;;26.35;12.77;;;13.50;99.90;;;;;;5084432;28;20044;-72
2022/10/30 06:57:31;;;;;;;22.38;13.55;;;13.40;99.90;;;;;;5073965;28;20104;-72
2022/10/30 06:59:57;;;;;;;23.90;13.23;;;13.30;99.90;;;;;;5083958;28;20078;-73
2022/10/30 07:02:23;;;;;;;22.45;13.90;;;13.20;99.90;;;;;;5085632;28;20104;-73
2022/10/30 07:04:49;;;;;;;23.10;13.27;;;13.10;99.90;;;;;;5098376;28;20047;-73
2022/10/30 07:07:15;;;;;;;24.20;13.63;;;13.00;99.90;;;;;;5061645;28;20080;-73
2022/10/30 07:09:41;;;;;;;25.50;14.18;;;13.00;99.90;;;;;;5087527;28;20078;-73
2022/10/30 07:12:07;;;;;;;25.35;13.27;;;13.00;99.90;;;;;;5082172;28;20048;-73
2022/10/30 07:14:34;;;;;;;19.80;13.52;;;12.90;99.90;;;;;;5074461;28;20079;-73
2022/10/30 07:17:00;;;;;;;23.50;13.75;;;12.90;99.90;;;;;;5061808;28;20049;-73
2022/10/30 07:19:25;;;;;;;24.98;13.95;;;12.90;99.90;;;;;;5092562;28;20047;-73
2022/10/30 07:21:51;;;;;;;26.13;13.10;;;12.90;99.90;;;;;;5079166;28;20127;-73
2022/10/30 07:24:17;;;;;;;21.83;13.93;;;12.90;99.90;;;;;;5052788;28;20040;-73
2022/10/30 07:26:42;;;;;;;23.67;14.75;;;13.00;99.90;;;;;;5083626;28;20055;-73
2022/10/30 07:29:08;;;;;;;23.63;13.63;;;13.10;99.90;;;;;;5075159;28;20071;-73
2022/10/30 07:31:34;;;;;;;23.50;14.95;;;13.10;99.90;;;;;;5078456;28;20044;-73
2022/10/30 07:33:59;;;;;;;24.15;14.68;;;13.10;99.90;;;;;;5078535;28;20059;-73
2022/10/30 07:36:25;;;;;;;28.13;14.85;;;13.20;99.90;;;;;;5076931;28;20083;-73
2022/10/30 07:38:51;;;;;;;22.13;14.68;;;13.30;99.90;;;;;;5056294;28;20039;-73
2022/10/30 07:41:18;;;;;;;25.73;14.60;;;13.30;99.90;;;;;;5047972;28;20036;-73
2022/10/30 07:43:44;;;;;;;28.52;14.80;;;13.30;99.90;;;;;;5046824;28;20045;-75
2022/10/30 07:46:10;;;;;;;25.73;14.77;;;13.40;99.90;;;;;;5047208;28;20044;-76
2022/10/30 07:48:36;;;;;;;26.77;15.05;;;13.40;99.90;;;;;;5047543;28;20049;-75
2022/10/30 07:51:01;;;;;;;23.13;14.68;;;13.50;99.90;;;;;;5047942;28;20047;-75
2022/10/30 07:53:27;;;;;;;24.23;15.25;;;13.60;99.90;;;;;;5063355;28;20102;-75
2022/10/30 07:55:53;;;;;;;27.05;15.85;;;13.60;99.90;;;;;;5063026;28;20056;-73
2022/10/30 07:58:18;;;;;;;30.27;14.52;;;13.70;99.90;;;;;;5046377;28;20044;-74
2022/10/30 08:00:44;;;;;;;27.25;14.88;;;13.70;99.90;;;;;;5047415;28;20091;-73
2022/10/30 08:03:11;;;;;;;24.15;14.90;;;13.80;99.90;;;;;;5065029;28;20045;-74
2022/10/30 08:05:37;;;;;;;24.38;14.15;;;13.80;99.90;;;;;;5061572;28;20033;-73
2022/10/30 08:08:03;;;;;;;22.33;15.38;;;13.90;99.90;;;;;;5053876;28;20406;-74
2022/10/30 08:10:28;;;;;;;26.90;16.40;;;14.00;99.90;;;;;;5044701;28;20104;-74
2022/10/30 08:12:54;;;;;;;21.38;14.52;;;14.10;99.90;;;;;;5063124;28;20051;-74
2022/10/30 08:15:20;;;;;;;24.65;15.20;;;14.20;99.90;;;;;;5060035;28;20041;-74
2022/10/30 08:17:49;;;;;;;28.00;15.85;;;14.30;99.90;;;;;;5063370;28;20049;-76
2022/10/30 08:20:18;;;;;;;26.27;16.52;;;14.30;99.90;;;;;;5063437;28;20127;-74
2022/10/30 08:22:52;;;;;;;23.00;15.50;;;14.40;99.90;;;;;;5063054;28;20080;-73
2022/10/30 08:25:20;;;;;;;25.35;16.23;;;14.50;99.90;;;;;;5051936;28;20064;-74
2022/10/30 08:27:59;;;;;;;24.25;15.73;;;14.50;99.90;;;;;;5044603;28;20045;-74
2022/10/30 08:30:27;;;;;;;25.65;15.80;;;14.60;99.90;;;;;;5061622;28;20096;-74
2022/10/30 08:33:00;;;;;;;22.90;15.07;;;14.60;99.90;;;;;;5064396;28;20056;-74
2022/10/30 08:35:26;;;;;;;25.05;15.05;;;14.70;99.90;;;;;;5064590;28;20044;-73
2022/10/30 08:37:56;;;;;;;22.63;16.80;;;14.70;99.90;;;;;;5045990;28;20055;-74
2022/10/30 08:40:22;;;;;;;27.77;15.10;;;14.80;99.90;;;;;;5056993;28;20062;-76
2022/10/30 08:42:52;;;;;;;24.40;15.52;;;14.80;99.90;;;;;;5024061;28;20049;-67
2022/10/30 08:45:19;;;;;;;28.00;16.13;;;14.90;99.90;;;;;;5064327;28;20052;-68
2022/10/30 08:47:44;;;;;;;23.17;15.93;;;14.80;99.90;;;;;;5075602;28;20067;-68
2022/10/30 08:50:10;;;;;;;25.58;15.20;;;14.90;99.90;;;;;;5066626;28;20032;-69
2022/10/30 08:52:36;;;;;;;25.73;15.73;;;15.00;99.90;;;;;;5066587;28;20051;-68
2022/10/30 08:55:01;;;;;;;26.00;15.95;;;15.00;99.90;;;;;;5066066;28;20036;-69
2022/10/30 08:57:27;;;;;;;31.38;17.52;;;15.00;99.90;;;;;;5084472;28;20044;-69
2022/10/30 08:59:53;;;;;;;26.70;15.35;;;15.10;99.90;;;;;;5053391;28;20075;-69
2022/10/30 09:02:18;;;;;;;24.70;14.65;;;15.20;99.90;;;;;;5066200;28;20103;-68
2022/10/30 09:04:44;;;;;;;25.02;15.70;;;15.30;99.90;;;;;;5083211;28;20040;-68
2022/10/30 09:07:10;;;;;;;24.70;15.20;;;15.30;99.90;;;;;;5064303;28;20120;-69
2022/10/30 09:09:36;;;;;;;24.30;14.15;;;15.30;99.90;;;;;;5063917;28;20102;-69
2022/10/30 09:12:02;;;;;;;22.45;14.55;;;15.40;99.90;;;;;;5046265;28;20102;-66
2022/10/30 09:14:27;;;;;;;25.48;15.27;;;15.40;99.90;;;;;;5063504;28;20056;-79
2022/10/30 09:16:54;;;;;;;23.52;15.15;;;15.40;99.90;;;;;;5064304;28;20041;-79
2022/10/30 09:19:19;;;;;;;24.08;14.68;;;15.50;99.90;;;;;;5065486;28;20507;-78
2022/10/30 09:21:45;;;;;;;23.67;15.88;;;15.50;99.90;;;;;;5078610;28;20121;-78
2022/10/30 09:24:11;;;;;;;24.38;16.02;;;15.60;99.90;;;;;;5068194;28;20068;-78
2022/10/30 09:26:36;;;;;;;27.70;16.42;;;15.70;99.90;;;;;;5077978;28;20055;-68
2022/10/30 09:29:02;;;;;;;25.00;15.82;;;15.70;99.90;;;;;;5082019;28;20048;-68
2022/10/30 09:31:28;;;;;;;26.33;15.90;;;15.80;99.90;;;;;;5081361;28;20089;-68
2022/10/30 09:33:53;;;;;;;28.70;15.73;;;15.90;99.90;;;;;;5055913;28;20046;-68
2022/10/30 09:36:19;;;;;;;20.95;13.93;;;15.90;99.90;;;;;;5062237;28;20052;-68
2022/10/30 09:38:45;;;;;;;24.80;15.30;;;16.00;99.90;;;;;;5064359;28;20112;-68
2022/10/30 09:41:37;;;;;;;26.00;15.43;;;16.00;99.90;;;;;;5074646;28;20060;-68
2022/10/30 09:44:40;;;;;;;29.13;14.57;;;16.10;99.90;;;;;;5033453;28;20057;-68
2022/10/30 09:47:23;;;;;;;27.92;15.38;;;16.20;99.90;;;;;;5023543;28;20115;-69
2022/10/30 09:50:10;;;;;;;27.42;14.65;;;16.30;99.90;;;;;;5006740;28;20057;-68
2022/10/30 09:53:10;;;;;;;24.77;14.15;;;16.40;99.90;;;;;;5039490;28;20295;-73
2022/10/30 09:56:03;;;;;;;28.02;16.27;;;16.50;99.90;;;;;;5051611;28;20622;-72
2022/10/30 09:58:36;;;;;;;23.98;14.35;;;16.50;99.90;;;;;;5029913;28;20532;-72
2022/10/30 10:01:25;;;;;;;27.73;14.77;;;16.60;99.90;;;;;;5017404;28;20049;-73
2022/10/30 10:04:24;;;;;;;25.70;15.57;;;16.70;99.90;;;;;;5027655;28;20045;-71
2022/10/30 10:06:58;;;;;;;24.75;14.43;;;16.80;99.90;;;;;;5051743;28;20056;-74
2022/10/30 10:09:25;;;;;;;24.02;15.88;;;16.80;99.90;;;;;;5045180;28;20129;-74
2022/10/30 10:11:57;;;;;;;29.23;13.85;;;16.90;99.90;;;;;;5033820;28;20053;-74
2022/10/30 10:14:38;;;;;;;24.67;14.73;;;16.90;99.90;;;;;;5059362;28;20037;-76
2022/10/30 10:17:09;;;;;;;29.02;15.75;;;17.00;99.90;;;;;;5034287;28;20079;-76
2022/10/30 10:19:41;;;;;;;25.63;13.60;;;17.10;99.90;;;;;;5028003;28;20037;-68
2022/10/30 10:22:36;;;;;;;24.13;13.55;;;17.20;99.90;;;;;;5036797;28;20044;-76
2022/10/30 10:25:05;;;;;;;22.98;13.50;;;17.30;99.90;;;;;;5019344;28;20057;-75
2022/10/30 10:28:02;;;;;;;21.38;13.75;;;17.30;99.90;;;;;;5050070;28;20080;-76
2022/10/30 10:30:52;;;;;;;25.88;14.05;;;17.40;99.90;;;;;;5060039;28;20056;-75
2022/10/30 10:33:29;;;;;;;25.52;14.18;;;17.50;99.90;;;;;;5032979;28;20126;-76
2022/10/30 10:36:08;;;;;;;22.88;14.23;;;17.50;99.90;;;;;;5026062;28;20056;-73
2022/10/30 10:38:37;;;;;;;24.50;13.77;;;17.60;99.90;;;;;;5068976;28;20492;-73
2022/10/30 10:41:24;;;;;;;23.42;13.93;;;17.60;99.90;;;;;;5045568;28;20049;-72
2022/10/30 10:44:08;;;;;;;22.83;13.18;;;17.70;99.90;;;;;;5029678;28;20060;-70
2022/10/30 10:46:59;;;;;;;25.20;12.90;;;17.70;99.90;;;;;;5034564;28;20067;-71
2022/10/30 10:49:35;;;;;;;20.83;13.20;;;17.80;99.90;;;;;;5043562;28;20040;-71
2022/10/30 10:52:08;;;;;;;27.77;12.10;;;17.90;99.90;;;;;;5033097;28;20049;-71
2022/10/30 10:54:54;;;;;;;20.23;12.43;;;18.10;99.90;;;;;;5047639;28;20052;-71
2022/10/30 10:57:34;;;;;;;22.70;11.82;;;18.20;99.90;;;;;;5060410;28;20057;-71
2022/10/30 11:00:15;;;;;;;20.05;12.07;;;18.30;99.90;;;;;;5048556;28;20591;-71
2022/10/30 11:02:46;;;;;;;22.05;12.15;;;18.30;99.90;;;;;;5046216;28;20048;-69
2022/10/30 11:05:30;;;;;;;21.02;11.10;;;18.40;99.90;;;;;;5057551;28;20051;-68
2022/10/30 11:08:19;;;;;;;21.67;11.05;;;18.50;99.90;;;;;;5030026;28;20075;-67
2022/10/30 11:10:50;;;;;;;20.05;11.15;;;18.70;99.90;;;;;;5047719;28;20725;-69
2022/10/30 11:13:16;;;;;;;17.52;10.13;;;18.80;99.90;;;;;;5022140;28;20069;-68
2022/10/30 11:16:06;;;;;;;21.63;11.52;;;18.90;99.90;;;;;;5046223;28;20040;-71
2022/10/30 11:18:33;;;;;;;20.65;10.88;;;19.10;99.90;;;;;;5045108;28;20158;-69
2022/10/30 11:21:07;;;;;;;18.60;10.48;;;19.20;99.90;;;;;;5039528;28;20417;-69
2022/10/30 11:23:42;;;;;;;20.92;10.68;;;19.30;99.90;;;;;;5040690;28;20129;-69
2022/10/30 11:26:16;;;;;;;19.88;9.95;;;19.40;99.90;;;;;;5001006;28;20059;-69
2022/10/30 11:28:51;;;;;;;17.75;10.30;;;19.60;99.90;;;;;;5063150;28;20033;-69
2022/10/30 11:31:33;;;;;;;22.38;10.02;;;19.80;99.90;;;;;;5040992;28;20082;-69
2022/10/30 11:34:17;;;;;;;19.15;9.68;;;19.70;99.90;;;;;;5046721;28;20067;-69
2022/10/30 11:36:47;;;;;;;16.58;8.93;;;19.70;99.90;;;;;;5046699;28;20471;-68
2022/10/30 11:39:24;;;;;;;16.02;9.35;;;19.80;99.90;;;;;;5048969;28;20096;-69
2022/10/30 11:42:05;;;;;;;18.90;9.57;;;19.80;99.90;;;;;;5034868;28;20190;-68
2022/10/30 11:44:37;;;;;;;18.15;10.35;;;19.70;99.90;;;;;;5033769;28;20057;-69
2022/10/30 11:47:05;;;;;;;15.82;9.98;;;19.70;99.90;;;;;;5038156;28;20064;-68
2022/10/30 11:49:48;;;;;;;17.02;9.27;;;19.90;99.90;;;;;;5048707;28;20045;-69
2022/10/30 11:52:17;;;;;;;19.42;9.27;;;20.00;99.90;;;;;;5031665;28;20065;-68
2022/10/30 11:54:49;;;;;;;17.02;8.85;;;20.00;99.90;;;;;;5047569;28;20075;-68
2022/10/30 11:57:34;;;;;;;18.48;8.30;;;20.10;99.90;;;;;;5039839;28;20055;-69
2022/10/30 12:00:01;;;;;;;18.63;7.93;;;20.20;99.90;;;;;;5042768;28;20041;-69
2022/10/30 12:02:40;;;;;;;13.05;7.80;;;20.30;99.90;;;;;;5028768;28;20072;-69
2022/10/30 12:05:26;;;;;;;18.03;8.33;;;20.40;99.90;;;;;;5023824;28;20045;-69
2022/10/30 12:08:07;;;;;;;14.95;8.60;;;20.60;99.90;;;;;;5049418;28;20314;-69
2022/10/30 12:10:51;;;;;;;17.88;8.18;;;20.60;99.90;;;;;;5039424;28;20056;-69
2022/10/30 12:13:19;;;;;;;17.55;7.25;;;20.70;99.90;;;;;;5061622;28;20048;-69
2022/10/30 12:15:49;;;;;;;13.32;7.10;;;20.80;99.90;;;;;;5055079;28;20071;-69
2022/10/30 12:18:27;;;;;;;17.63;7.82;;;20.90;99.90;;;;;;5044438;28;20068;-69
2022/10/30 12:20:56;;;;;;;16.90;7.80;;;20.90;99.90;;;;;;5038312;28;20452;-69
2022/10/30 12:23:25;;;;;;;17.92;7.72;;;20.80;99.90;;;;;;5043722;28;20053;-68
2022/10/30 12:26:00;;;;;;;12.38;7.25;;;20.70;99.90;;;;;;5015446;28;20049;-69
2022/10/30 12:28:29;;;;;;;17.17;7.65;;;20.70;99.90;;;;;;5036059;28;20056;-68
2022/10/30 12:31:02;;;;;;;15.20;7.35;;;20.70;99.90;;;;;;5033304;28;20077;-68
2022/10/30 12:33:42;;;;;;;16.05;7.85;;;20.70;99.90;;;;;;5029081;28;20100;-68
2022/10/30 12:36:26;;;;;;;14.32;7.13;;;20.80;99.90;;;;;;5023357;28;20214;-68
2022/10/30 12:39:02;;;;;;;13.07;7.30;;;20.80;99.90;;;;;;5047520;28;20049;-68
2022/10/30 12:41:53;;;;;;;16.52;7.32;;;21.00;99.90;;;;;;5050058;28;20044;-69